Time;durP1;ratioP1;P1;durP2;ratioP2;P2;SDS_P1;SDS_P2;PMS_P1;PMS_P2;Temp;Humidity;BMP_temperature;BMP_pressure;BME280_temperature;BME280_humidity;BME280_pressure;Samples;Min_cycle;Max_cycle;Signal;HPM_P1;HPM_P2
2021/11/28 00:00:31;;;;;;;1.70;1.60;;;19.30;55.10;;;;;;4783566;30;20164;-83
2021/11/28 00:02:58;;;;;;;1.92;1.65;;;19.30;55.30;;;;;;4784518;30;20171;-84
2021/11/28 00:05:26;;;;;;;2.40;1.60;;;19.30;55.30;;;;;;4783973;30;20203;-84
2021/11/28 00:13:03;;;;;;;1.83;1.50;;;19.30;55.20;;;;;;4785431;30;20202;-84
2021/11/28 00:15:29;;;;;;;2.25;1.58;;;19.30;55.30;;;;;;4784193;30;20175;-84
2021/11/28 00:17:55;;;;;;;2.50;1.33;;;19.20;55.10;;;;;;4783870;30;20228;-84
2021/11/28 00:20:21;;;;;;;2.65;1.70;;;19.30;55.30;;;;;;4783866;30;20175;-83
2021/11/28 00:22:49;;;;;;;2.03;1.60;;;19.30;55.30;;;;;;4799300;30;20171;-84
2021/11/28 00:25:17;;;;;;;2.67;1.88;;;19.30;55.00;;;;;;4784096;30;20203;-84
2021/11/28 00:27:46;;;;;;;2.03;1.50;;;19.30;55.20;;;;;;4784335;30;20191;-84
2021/11/28 00:30:17;;;;;;;1.80;1.50;;;19.30;55.00;;;;;;4783504;30;20182;-84
2021/11/28 00:32:43;;;;;;;2.78;1.75;;;19.30;55.00;;;;;;4783744;30;20194;-84
2021/11/28 00:35:09;;;;;;;1.90;1.52;;;19.30;55.10;;;;;;4798915;30;20616;-84
2021/11/28 00:37:35;;;;;;;2.03;1.50;;;19.30;55.00;;;;;;4769287;30;20236;-84
2021/11/28 00:40:03;;;;;;;1.83;1.50;;;19.30;55.00;;;;;;4768919;30;20179;-83
2021/11/28 00:42:29;;;;;;;2.72;1.73;;;19.30;55.00;;;;;;4799430;30;20227;-84
2021/11/28 00:44:55;;;;;;;2.33;1.58;;;19.30;54.90;;;;;;4797675;30;20243;-84
2021/11/28 00:47:21;;;;;;;2.00;1.80;;;19.30;55.10;;;;;;4784430;30;20212;-84
2021/11/28 00:50:25;;;;;;;1.70;1.60;;;19.30;55.10;;;;;;4768961;30;20175;-84
2021/11/28 00:52:34;;;;;;;2.13;1.50;;;19.20;54.90;;;;;;4785920;30;20183;-85
2021/11/28 00:55:01;;;;;;;1.98;1.77;;;19.30;55.00;;;;;;4798438;30;20188;-84
2021/11/28 00:57:27;;;;;;;3.08;1.80;;;19.20;54.90;;;;;;4784434;30;20198;-84
2021/11/28 00:59:53;;;;;;;1.80;1.25;;;19.20;55.00;;;;;;4787109;30;20501;-84
2021/11/28 01:02:21;;;;;;;2.30;1.48;;;19.30;54.60;;;;;;4801604;30;20171;-83
2021/11/28 01:04:50;;;;;;;2.58;1.63;;;19.30;55.10;;;;;;4786342;30;20559;-84
2021/11/28 01:07:16;;;;;;;2.05;1.52;;;19.20;55.00;;;;;;4771884;30;20592;-83
2021/11/28 01:09:42;;;;;;;3.05;1.63;;;19.30;55.20;;;;;;4772921;30;20180;-84
2021/11/28 01:12:09;;;;;;;1.67;1.50;;;19.30;54.60;;;;;;4772070;30;20264;-84
2021/11/28 01:14:36;;;;;;;4.13;1.70;;;19.30;55.10;;;;;;4787085;30;20175;-84
2021/11/28 01:17:03;;;;;;;1.65;1.40;;;19.20;55.20;;;;;;4787049;30;20279;-84
2021/11/28 01:19:30;;;;;;;1.50;1.30;;;19.30;54.90;;;;;;4771868;30;20551;-84
2021/11/28 01:21:57;;;;;;;2.97;1.70;;;19.30;54.80;;;;;;4787061;30;20183;-83
2021/11/28 01:24:23;;;;;;;2.17;1.58;;;19.30;55.00;;;;;;4785967;30;20203;-84
2021/11/28 01:26:50;;;;;;;1.90;1.40;;;19.30;55.00;;;;;;4771396;30;20279;-84
2021/11/28 01:29:16;;;;;;;2.40;1.63;;;19.30;54.70;;;;;;4801449;30;20160;-84
2021/11/28 01:31:41;;;;;;;1.70;1.40;;;19.20;55.00;;;;;;4786468;30;20206;-85
2021/11/28 01:34:07;;;;;;;2.30;1.60;;;19.20;55.00;;;;;;4802141;30;20203;-84
2021/11/28 01:36:34;;;;;;;3.28;1.60;;;19.20;54.90;;;;;;4801076;30;20175;-84
2021/11/28 01:39:00;;;;;;;2.38;1.60;;;19.20;55.00;;;;;;4800845;30;20174;-83
2021/11/28 01:41:25;;;;;;;3.80;1.77;;;19.10;54.70;;;;;;4771547;30;20636;-84
2021/11/28 01:43:52;;;;;;;2.58;1.40;;;19.20;55.00;;;;;;4785548;30;20187;-83
2021/11/28 01:46:19;;;;;;;2.03;1.50;;;19.20;55.00;;;;;;4786281;30;20172;-82
2021/11/28 01:48:46;;;;;;;2.40;1.60;;;19.20;54.80;;;;;;4785691;30;20226;-84
2021/11/28 01:51:12;;;;;;;3.08;1.63;;;19.20;54.80;;;;;;4785348;30;20175;-83
2021/11/28 01:53:38;;;;;;;3.70;1.52;;;19.20;54.70;;;;;;4785650;30;20176;-83
2021/11/28 01:56:04;;;;;;;2.67;1.60;;;19.20;54.80;;;;;;4786293;30;20168;-84
2021/11/28 01:58:34;;;;;;;2.00;1.50;;;19.20;54.80;;;;;;4785797;30;20295;-84
2021/11/28 02:01:02;;;;;;;1.80;1.60;;;19.30;54.80;;;;;;4800856;30;20164;-84
2021/11/28 02:03:28;;;;;;;1.52;1.40;;;19.20;54.80;;;;;;4785900;30;20579;-84
2021/11/28 02:05:58;;;;;;;3.10;1.40;;;19.20;54.80;;;;;;4785536;30;20210;-85
2021/11/28 02:08:24;;;;;;;2.15;1.60;;;19.20;54.70;;;;;;4800871;29;20227;-84
2021/11/28 02:10:51;;;;;;;2.00;1.63;;;19.20;54.80;;;;;;4786070;30;20172;-84
2021/11/28 02:13:18;;;;;;;1.75;1.42;;;19.20;54.60;;;;;;4784517;30;20187;-83
2021/11/28 02:15:44;;;;;;;1.88;1.35;;;19.20;54.90;;;;;;4800718;30;20246;-83
2021/11/28 02:18:10;;;;;;;2.50;1.42;;;19.20;54.90;;;;;;4800387;30;20176;-84
2021/11/28 02:20:45;;;;;;;1.50;1.40;;;19.20;54.60;;;;;;4785728;30;20175;-83
2021/11/28 02:23:14;;;;;;;1.92;1.45;;;19.20;54.70;;;;;;4784782;30;20163;-84
2021/11/28 02:25:42;;;;;;;2.50;1.60;;;19.20;55.40;;;;;;4785071;30;20199;-84
2021/11/28 02:28:09;;;;;;;2.38;1.70;;;19.20;54.60;;;;;;4785132;30;20167;-83
2021/11/28 02:30:35;;;;;;;1.95;1.55;;;19.20;54.70;;;;;;4784626;30;20538;-84
2021/11/28 02:33:01;;;;;;;3.35;1.67;;;19.20;54.70;;;;;;4784346;30;20227;-84
2021/11/28 02:35:27;;;;;;;1.30;1.20;;;19.20;54.80;;;;;;4785149;30;20179;-84
2021/11/28 02:37:53;;;;;;;1.70;1.52;;;19.20;54.60;;;;;;4799721;30;20178;-84
2021/11/28 02:40:20;;;;;;;1.77;1.65;;;19.20;54.60;;;;;;4769916;30;20175;-84
2021/11/28 02:42:49;;;;;;;1.60;1.48;;;19.20;54.60;;;;;;4784462;30;20164;-84
2021/11/28 02:45:15;;;;;;;1.88;1.67;;;19.20;54.70;;;;;;4784290;30;20206;-84
2021/11/28 02:47:42;;;;;;;2.22;1.60;;;19.10;54.60;;;;;;4785374;30;20262;-84
2021/11/28 02:50:10;;;;;;;5.45;1.50;;;19.20;54.60;;;;;;4799956;30;20270;-84
2021/11/28 02:52:36;;;;;;;1.60;1.50;;;19.20;54.90;;;;;;4784464;30;20160;-83
2021/11/28 02:55:03;;;;;;;2.05;1.63;;;19.10;54.60;;;;;;4769652;30;20270;-84
2021/11/28 02:57:31;;;;;;;2.25;1.65;;;19.10;54.50;;;;;;4784942;30;20242;-83
2021/11/28 02:59:58;;;;;;;2.63;1.50;;;19.10;54.70;;;;;;4799691;30;20651;-83
2021/11/28 03:02:24;;;;;;;2.15;1.65;;;19.20;54.60;;;;;;4769684;30;20270;-84
2021/11/28 03:04:49;;;;;;;2.85;1.45;;;19.20;54.80;;;;;;4784754;30;20666;-84
2021/11/28 03:07:17;;;;;;;2.42;1.45;;;19.20;54.60;;;;;;4783882;30;20227;-84
2021/11/28 03:09:44;;;;;;;2.35;1.45;;;19.20;54.50;;;;;;4784245;30;20187;-84
2021/11/28 03:12:10;;;;;;;1.67;1.52;;;19.20;54.50;;;;;;4784194;30;20592;-84
2021/11/28 03:14:37;;;;;;;1.95;1.50;;;19.10;54.50;;;;;;4784211;30;20168;-83
2021/11/28 03:17:03;;;;;;;1.50;1.30;;;19.10;55.00;;;;;;4798462;30;20167;-84
2021/11/28 03:19:31;;;;;;;2.35;1.60;;;19.10;54.60;;;;;;4768883;29;20593;-84
2021/11/28 03:21:57;;;;;;;1.75;1.50;;;19.10;54.50;;;;;;4799404;30;20179;-84
2021/11/28 03:24:25;;;;;;;1.65;1.50;;;19.10;54.50;;;;;;4798706;30;20196;-84
2021/11/28 03:26:53;;;;;;;2.00;1.52;;;19.10;54.60;;;;;;4799387;30;20178;-85
2021/11/28 03:29:20;;;;;;;2.20;1.48;;;19.10;54.60;;;;;;4784346;30;20187;-84
2021/11/28 03:31:49;;;;;;;1.80;1.60;;;19.20;54.50;;;;;;4768824;30;20187;-83
2021/11/28 03:34:15;;;;;;;2.28;1.55;;;19.10;54.50;;;;;;4769016;30;20225;-84
2021/11/28 03:36:49;;;;;;;1.50;1.33;;;19.10;54.60;;;;;;4783652;30;20176;-84
2021/11/28 03:39:15;;;;;;;2.90;1.40;;;19.10;54.50;;;;;;4769394;30;20171;-84
2021/11/28 03:41:46;;;;;;;1.88;1.42;;;19.10;54.50;;;;;;4783352;30;20183;-85
2021/11/28 03:44:12;;;;;;;1.83;1.55;;;19.10;54.60;;;;;;4783004;30;20203;-84
2021/11/28 03:46:40;;;;;;;1.95;1.30;;;19.10;54.60;;;;;;4783333;30;20164;-83
2021/11/28 03:49:06;;;;;;;1.90;1.70;;;19.10;54.60;;;;;;4783710;30;20261;-84
2021/11/28 03:51:33;;;;;;;1.98;1.60;;;19.20;54.50;;;;;;4768198;30;20223;-84
2021/11/28 03:54:01;;;;;;;2.42;1.80;;;19.10;54.40;;;;;;4784238;30;20171;-84
2021/11/28 03:56:28;;;;;;;2.13;1.45;;;19.10;54.60;;;;;;4783186;30;20191;-82
2021/11/28 03:58:54;;;;;;;1.70;1.60;;;19.10;54.60;;;;;;4783098;30;20642;-84
2021/11/28 04:01:20;;;;;;;1.83;1.50;;;19.10;54.40;;;;;;4783183;30;20210;-83
2021/11/28 04:03:46;;;;;;;1.80;1.25;;;19.10;54.40;;;;;;4768490;30;20187;-84
2021/11/28 04:06:12;;;;;;;1.98;1.50;;;19.10;54.40;;;;;;4783694;30;20163;-82
2021/11/28 04:08:38;;;;;;;2.08;1.40;;;19.10;54.30;;;;;;4769011;30;20320;-84
2021/11/28 04:11:10;;;;;;;2.95;1.80;;;19.10;54.30;;;;;;4782549;30;20199;-84
2021/11/28 04:13:36;;;;;;;1.52;1.42;;;19.10;54.40;;;;;;4797920;30;20207;-84
2021/11/28 04:16:02;;;;;;;1.85;1.45;;;19.10;54.50;;;;;;4769188;30;20176;-84
2021/11/28 04:18:28;;;;;;;2.38;1.65;;;19.10;54.40;;;;;;4783399;30;20214;-84
2021/11/28 04:20:54;;;;;;;2.08;1.60;;;19.10;54.50;;;;;;4768268;30;20175;-84
2021/11/28 04:23:20;;;;;;;1.75;1.40;;;19.10;54.40;;;;;;4769024;30;20205;-85
2021/11/28 04:25:48;;;;;;;2.58;1.58;;;19.10;54.40;;;;;;4797790;30;20195;-84
2021/11/28 04:28:14;;;;;;;1.77;1.40;;;19.10;54.30;;;;;;4783590;30;20700;-83
2021/11/28 04:30:41;;;;;;;2.03;1.60;;;19.00;54.40;;;;;;4783468;30;20160;-84
2021/11/28 04:33:08;;;;;;;1.80;1.67;;;19.20;54.50;;;;;;4797097;30;20175;-83
2021/11/28 04:35:33;;;;;;;1.40;1.27;;;19.10;54.20;;;;;;4782584;30;20202;-84
2021/11/28 04:37:59;;;;;;;2.78;1.80;;;19.00;54.40;;;;;;4768085;30;20176;-84
2021/11/28 04:40:25;;;;;;;2.67;1.63;;;19.10;54.30;;;;;;4767689;30;20190;-83
2021/11/28 04:42:52;;;;;;;1.70;1.50;;;19.10;54.20;;;;;;4783661;30;20193;-84
2021/11/28 04:45:17;;;;;;;1.70;1.33;;;19.10;54.20;;;;;;4797432;30;20214;-84
2021/11/28 04:47:45;;;;;;;1.70;1.40;;;19.10;54.30;;;;;;4782543;30;20216;-84
2021/11/28 04:50:12;;;;;;;1.55;1.45;;;19.10;54.30;;;;;;4767920;30;20167;-84
2021/11/28 04:52:40;;;;;;;1.63;1.50;;;19.10;54.40;;;;;;4782743;30;20171;-83
2021/11/28 04:55:07;;;;;;;3.00;1.40;;;19.10;54.30;;;;;;4782804;30;20203;-84
2021/11/28 04:57:36;;;;;;;1.58;1.40;;;19.00;54.30;;;;;;4798671;30;20196;-83
2021/11/28 05:00:08;;;;;;;2.17;1.60;;;19.10;54.20;;;;;;4782682;30;20185;-83
2021/11/28 05:02:34;;;;;;;1.70;1.50;;;19.10;54.30;;;;;;4783086;30;20187;-83
2021/11/28 05:04:59;;;;;;;1.73;1.40;;;19.10;54.20;;;;;;4782527;30;20199;-83
2021/11/28 05:07:25;;;;;;;1.77;1.55;;;19.10;54.20;;;;;;4782510;30;20381;-83
2021/11/28 05:09:52;;;;;;;1.40;1.30;;;19.00;54.30;;;;;;4783005;30;20175;-83
2021/11/28 05:12:19;;;;;;;1.40;1.30;;;19.10;54.30;;;;;;4782652;30;20179;-83
2021/11/28 05:14:45;;;;;;;1.58;1.23;;;19.10;54.30;;;;;;4781903;30;20178;-83
2021/11/28 05:17:11;;;;;;;1.88;1.55;;;19.10;54.30;;;;;;4797478;30;20176;-83
2021/11/28 05:19:37;;;;;;;2.03;1.48;;;19.10;54.20;;;;;;4767410;30;20270;-84
2021/11/28 05:22:03;;;;;;;1.92;1.50;;;19.00;54.20;;;;;;4782444;30;20167;-84
2021/11/28 05:24:28;;;;;;;2.33;1.33;;;19.10;54.40;;;;;;4798594;30;20675;-83
2021/11/28 05:26:57;;;;;;;1.83;1.45;;;19.10;55.00;;;;;;4781939;30;20156;-84
2021/11/28 05:29:23;;;;;;;1.80;1.50;;;19.10;54.30;;;;;;4782260;30;20585;-82
2021/11/28 05:31:48;;;;;;;1.45;1.35;;;19.10;54.20;;;;;;4768216;30;20236;-83
2021/11/28 05:34:14;;;;;;;1.73;1.20;;;19.00;54.10;;;;;;4783144;30;20180;-84
2021/11/28 05:36:42;;;;;;;1.40;1.30;;;19.10;54.20;;;;;;4767981;30;20167;-83
2021/11/28 05:39:11;;;;;;;2.65;1.70;;;19.10;54.20;;;;;;4782096;30;20179;-83
2021/11/28 05:41:36;;;;;;;1.60;1.40;;;19.10;54.30;;;;;;4781729;30;20239;-83
2021/11/28 05:44:02;;;;;;;2.80;1.65;;;19.10;54.20;;;;;;4783877;30;20221;-83
2021/11/28 05:46:30;;;;;;;1.75;1.42;;;19.00;54.20;;;;;;4770487;30;20188;-84
2021/11/28 05:48:56;;;;;;;1.98;1.63;;;19.00;54.10;;;;;;4784892;30;20244;-82
2021/11/28 05:51:22;;;;;;;1.70;1.50;;;19.00;54.20;;;;;;4767816;30;20500;-83
2021/11/28 05:53:48;;;;;;;2.90;1.40;;;19.00;54.10;;;;;;4765692;30;20186;-82
2021/11/28 05:56:16;;;;;;;1.55;1.45;;;19.00;54.20;;;;;;4780707;30;20204;-82
2021/11/28 05:58:42;;;;;;;1.65;1.50;;;19.10;54.30;;;;;;4765736;30;20206;-82
2021/11/28 06:01:09;;;;;;;2.67;1.48;;;19.00;54.20;;;;;;4796062;30;20160;-82
2021/11/28 06:03:37;;;;;;;1.48;1.38;;;19.10;54.10;;;;;;4780745;30;20164;-83
2021/11/28 06:06:03;;;;;;;1.80;1.60;;;19.10;54.20;;;;;;4797127;30;20257;-83
2021/11/28 06:08:28;;;;;;;1.77;1.45;;;19.10;54.20;;;;;;4765226;30;20231;-82
2021/11/28 06:10:54;;;;;;;1.60;1.50;;;19.00;54.20;;;;;;4796174;30;20209;-82
2021/11/28 06:13:20;;;;;;;2.67;1.48;;;19.00;54.10;;;;;;4796568;30;20525;-83
2021/11/28 06:15:46;;;;;;;1.65;1.23;;;19.00;54.10;;;;;;4795320;30;20175;-83
2021/11/28 06:18:13;;;;;;;1.48;1.23;;;19.00;54.20;;;;;;4764986;30;20635;-83
2021/11/28 06:20:39;;;;;;;2.83;1.85;;;19.00;54.10;;;;;;4765342;30;20243;-83
2021/11/28 06:23:06;;;;;;;1.67;1.50;;;19.00;54.10;;;;;;4780849;30;20183;-82
2021/11/28 06:25:32;;;;;;;1.63;1.40;;;19.00;54.10;;;;;;4765509;30;20252;-82
2021/11/28 06:27:58;;;;;;;2.17;1.58;;;19.00;54.10;;;;;;4765392;30;20184;-81
2021/11/28 06:30:24;;;;;;;1.70;1.40;;;19.00;54.00;;;;;;4779843;30;20644;-82
2021/11/28 06:32:51;;;;;;;1.73;1.63;;;18.90;54.00;;;;;;4797288;30;20168;-82
2021/11/28 06:35:17;;;;;;;2.15;1.40;;;19.00;54.20;;;;;;4781390;30;20167;-82
2021/11/28 06:37:43;;;;;;;1.95;1.38;;;19.00;54.10;;;;;;4766557;30;20719;-82
2021/11/28 06:40:09;;;;;;;1.60;1.38;;;19.00;54.10;;;;;;4781860;30;20179;-83
2021/11/28 06:42:35;;;;;;;1.95;1.58;;;19.00;54.10;;;;;;4782536;30;20628;-83
2021/11/28 06:45:00;;;;;;;1.67;1.33;;;19.00;54.00;;;;;;4766464;30;20200;-82
2021/11/28 06:47:26;;;;;;;2.65;1.75;;;19.10;54.00;;;;;;4766349;30;20191;-84
2021/11/28 06:49:52;;;;;;;1.42;1.30;;;19.10;53.90;;;;;;4766655;30;20164;-83
2021/11/28 06:52:19;;;;;;;2.40;1.65;;;19.10;54.00;;;;;;4766328;30;20198;-82
2021/11/28 06:54:44;;;;;;;1.55;1.40;;;19.10;54.00;;;;;;4780442;30;20198;-81
2021/11/28 06:57:10;;;;;;;2.10;1.45;;;19.10;54.00;;;;;;4766017;30;20163;-84
2021/11/28 06:59:36;;;;;;;3.25;1.20;;;19.10;53.90;;;;;;4751187;30;20180;-81
2021/11/28 07:02:02;;;;;;;1.75;1.50;;;19.10;53.90;;;;;;4795876;30;20202;-81
2021/11/28 07:04:28;;;;;;;1.63;1.30;;;19.00;53.90;;;;;;4764307;30;20234;-82
2021/11/28 07:06:53;;;;;;;2.15;1.60;;;19.00;54.00;;;;;;4766476;30;20160;-83
2021/11/28 07:09:19;;;;;;;2.47;1.30;;;19.00;53.90;;;;;;4751377;30;20379;-82
2021/11/28 07:11:57;;;;;;;1.65;1.20;;;19.00;54.00;;;;;;4781091;30;20278;-82
2021/11/28 07:14:23;;;;;;;1.35;1.25;;;19.10;53.70;;;;;;4784729;30;20187;-82
2021/11/28 07:16:50;;;;;;;2.17;1.40;;;19.10;53.30;;;;;;4771019;30;20210;-84
2021/11/28 07:19:16;;;;;;;1.38;1.27;;;19.20;53.10;;;;;;4785531;30;20188;-83
2021/11/28 07:21:42;;;;;;;1.88;1.40;;;19.20;53.20;;;;;;4785827;30;20164;-83
2021/11/28 07:24:08;;;;;;;1.48;1.30;;;19.20;52.60;;;;;;4801360;30;20228;-84
2021/11/28 07:26:33;;;;;;;2.20;1.17;;;19.30;53.20;;;;;;4770749;30;20164;-83
2021/11/28 07:29:00;;;;;;;1.67;1.33;;;19.30;53.00;;;;;;4770416;30;20247;-82
2021/11/28 07:31:26;;;;;;;3.95;1.33;;;19.30;52.80;;;;;;4785377;30;20645;-83
2021/11/28 07:33:52;;;;;;;1.50;1.40;;;19.30;52.80;;;;;;4785067;30;20200;-82
2021/11/28 07:36:18;;;;;;;1.98;1.10;;;19.40;52.70;;;;;;4784594;30;20237;-83
2021/11/28 07:38:44;;;;;;;1.90;1.45;;;19.40;52.50;;;;;;4769857;30;20163;-83
2021/11/28 07:41:10;;;;;;;1.48;1.38;;;19.50;52.60;;;;;;4770737;30;20183;-83
2021/11/28 07:43:38;;;;;;;2.55;1.27;;;19.50;52.30;;;;;;4768800;30;20163;-82
2021/11/28 07:46:05;;;;;;;1.67;1.23;;;19.40;52.30;;;;;;4770351;30;20211;-81
2021/11/28 07:48:30;;;;;;;2.80;1.48;;;19.50;52.70;;;;;;4752613;30;20181;-83
2021/11/28 07:50:58;;;;;;;1.70;1.27;;;19.50;51.80;;;;;;4781249;30;20183;-82
2021/11/28 07:53:26;;;;;;;1.48;1.20;;;19.60;51.30;;;;;;4765325;30;20519;-83
2021/11/28 07:55:52;;;;;;;2.38;1.30;;;19.60;51.50;;;;;;4765076;30;20183;-83
2021/11/28 07:58:18;;;;;;;2.38;1.50;;;19.60;50.80;;;;;;4767868;30;20183;-82
2021/11/28 08:00:48;;;;;;;2.40;1.40;;;19.60;51.20;;;;;;4765803;30;20194;-85
2021/11/28 08:03:15;;;;;;;4.60;1.40;;;19.60;50.80;;;;;;4779928;30;20274;-83
2021/11/28 08:05:40;;;;;;;5.30;1.40;;;19.60;51.00;;;;;;4778721;29;20263;-82
2021/11/28 08:08:06;;;;;;;2.10;1.40;;;19.60;50.70;;;;;;4763700;30;20231;-81
2021/11/28 08:10:32;;;;;;;2.33;1.42;;;19.60;51.00;;;;;;4790947;30;20538;-81
2021/11/28 08:12:58;;;;;;;3.38;1.45;;;19.70;50.90;;;;;;4794006;30;20199;-84
2021/11/28 08:15:23;;;;;;;2.28;1.30;;;19.80;51.10;;;;;;4777270;30;20232;-81
2021/11/28 08:17:49;;;;;;;2.58;1.60;;;19.70;50.90;;;;;;4794073;30;20171;-81
2021/11/28 08:20:17;;;;;;;4.10;1.40;;;19.70;51.20;;;;;;4777386;30;20202;-82
2021/11/28 08:22:43;;;;;;;3.03;1.42;;;19.70;51.20;;;;;;4777305;30;20735;-81
2021/11/28 08:25:10;;;;;;;1.50;1.40;;;19.70;51.20;;;;;;4791415;30;20195;-82
2021/11/28 08:27:37;;;;;;;2.05;1.48;;;19.70;51.20;;;;;;4764240;30;20164;-80
2021/11/28 08:30:09;;;;;;;1.40;1.30;;;19.80;50.90;;;;;;4775281;30;20179;-81
2021/11/28 08:32:34;;;;;;;4.55;1.40;;;19.80;51.40;;;;;;4775653;30;20186;-82
2021/11/28 08:35:00;;;;;;;6.65;1.30;;;19.70;51.20;;;;;;4794298;30;20171;-81
2021/11/28 08:37:26;;;;;;;1.65;1.30;;;19.80;51.10;;;;;;4763806;30;20329;-80
2021/11/28 08:39:51;;;;;;;1.80;1.42;;;19.70;51.00;;;;;;4777398;30;20307;-81
2021/11/28 08:42:17;;;;;;;2.35;1.30;;;19.80;51.00;;;;;;4762155;30;20327;-83
2021/11/28 08:44:43;;;;;;;4.72;1.38;;;19.80;51.60;;;;;;4775649;30;20192;-81
2021/11/28 08:47:09;;;;;;;2.85;1.40;;;19.80;51.60;;;;;;4774345;30;20181;-82
2021/11/28 08:49:47;;;;;;;5.00;1.65;;;19.80;51.80;;;;;;4757212;30;20184;-83
2021/11/28 08:52:18;;;;;;;2.75;1.45;;;19.80;52.20;;;;;;4749446;30;20224;-82
2021/11/28 08:54:47;;;;;;;2.65;1.40;;;19.70;52.00;;;;;;4741611;30;20197;-82
2021/11/28 08:57:18;;;;;;;8.13;1.60;;;19.80;52.40;;;;;;4743881;30;20197;-80
2021/11/28 08:59:44;;;;;;;3.15;1.17;;;19.80;52.30;;;;;;4759398;30;20204;-81
2021/11/28 09:02:10;;;;;;;1.75;1.40;;;19.80;52.20;;;;;;4745374;30;20185;-83
2021/11/28 09:04:37;;;;;;;7.63;1.75;;;19.90;52.30;;;;;;4756382;30;20562;-81
2021/11/28 09:07:03;;;;;;;8.32;1.80;;;19.80;51.20;;;;;;4758510;30;20256;-81
2021/11/28 09:09:28;;;;;;;8.18;1.60;;;19.90;51.30;;;;;;4743273;30;20239;-81
2021/11/28 09:11:55;;;;;;;8.20;1.58;;;19.90;51.70;;;;;;4758003;30;20225;-81
2021/11/28 09:14:21;;;;;;;7.60;1.52;;;20.00;51.20;;;;;;4758452;30;20319;-81
2021/11/28 09:16:48;;;;;;;3.25;1.45;;;19.90;51.00;;;;;;4745002;30;20238;-81
2021/11/28 09:19:19;;;;;;;1.70;1.17;;;19.90;51.10;;;;;;4746965;30;20505;-82
2021/11/28 09:21:45;;;;;;;5.43;1.48;;;19.90;50.70;;;;;;4747407;30;20189;-82
2021/11/28 09:26:54;;;;;;;3.15;1.50;;;20.00;50.80;;;;;;4782131;30;20160;-84
2021/11/28 09:29:23;;;;;;;3.22;1.33;;;19.90;50.30;;;;;;4783356;30;20180;-83
2021/11/28 09:31:51;;;;;;;6.18;1.63;;;20.00;51.00;;;;;;4767814;30;20237;-81
2021/11/28 09:34:19;;;;;;;6.63;1.60;;;20.00;50.80;;;;;;4785515;30;20185;-80
2021/11/28 09:36:45;;;;;;;3.78;1.52;;;20.00;50.90;;;;;;4769846;30;20656;-80
2021/11/28 09:39:11;;;;;;;5.65;1.42;;;20.00;51.00;;;;;;4785155;30;20221;-81
2021/11/28 09:41:37;;;;;;;2.72;1.40;;;20.00;50.40;;;;;;4783627;30;20190;-80
2021/11/28 09:44:08;;;;;;;5.63;1.23;;;20.00;50.90;;;;;;4749969;30;20172;-83
2021/11/28 09:46:36;;;;;;;4.78;1.60;;;20.00;50.30;;;;;;4784933;30;20164;-84
2021/11/28 09:49:06;;;;;;;1.90;1.40;;;20.10;50.90;;;;;;4754004;30;20544;-82
2021/11/28 09:51:36;;;;;;;4.30;1.38;;;20.00;50.40;;;;;;4771655;30;20543;-82
2021/11/28 09:54:04;;;;;;;3.13;1.52;;;20.00;50.70;;;;;;4763564;30;20196;-83
2021/11/28 09:56:35;;;;;;;3.30;1.50;;;19.90;50.50;;;;;;4747812;30;20185;-83
2021/11/28 09:59:03;;;;;;;6.00;1.48;;;20.00;50.80;;;;;;4749348;30;20227;-83
2021/11/28 10:01:31;;;;;;;4.93;1.30;;;20.00;50.70;;;;;;4749433;30;20267;-82
2021/11/28 10:03:59;;;;;;;2.55;1.48;;;20.00;51.00;;;;;;4763134;30;20192;-81
2021/11/28 10:06:27;;;;;;;6.45;1.70;;;20.00;51.50;;;;;;4762912;30;20687;-84
2021/11/28 10:08:52;;;;;;;3.00;1.45;;;19.90;52.10;;;;;;4780172;30;20240;-83
2021/11/28 10:11:52;;;;;;;5.65;1.60;;;19.90;51.90;;;;;;4758885;30;20197;-84
2021/11/28 10:14:19;;;;;;;4.28;1.63;;;19.90;52.30;;;;;;4763785;30;20219;-83
2021/11/28 10:16:45;;;;;;;7.38;1.60;;;20.00;52.10;;;;;;4764098;30;20195;-83
2021/11/28 10:19:14;;;;;;;3.75;1.60;;;20.00;52.10;;;;;;4760219;30;20200;-83
2021/11/28 10:21:40;;;;;;;2.50;1.52;;;19.90;52.10;;;;;;4757708;30;20169;-82
2021/11/28 10:24:12;;;;;;;2.95;1.63;;;20.00;51.90;;;;;;4767664;30;20169;-84
2021/11/28 10:27:04;;;;;;;6.63;1.67;;;20.00;51.80;;;;;;4769223;30;20183;-82
2021/11/28 10:29:33;;;;;;;4.65;1.65;;;19.90;52.00;;;;;;4769845;30;20171;-81
2021/11/28 10:32:02;;;;;;;7.80;1.80;;;20.00;52.00;;;;;;4781496;30;20162;-83
2021/11/28 10:34:34;;;;;;;4.32;1.50;;;20.00;51.40;;;;;;4765266;30;20623;-83
2021/11/28 10:37:04;;;;;;;4.47;1.58;;;19.90;51.40;;;;;;4766204;30;20183;-81
2021/11/28 10:39:37;;;;;;;4.53;1.40;;;19.90;52.00;;;;;;4755896;30;20209;-82
2021/11/28 10:42:03;;;;;;;2.55;1.38;;;20.00;51.80;;;;;;4784030;30;20227;-84
2021/11/28 10:44:28;;;;;;;3.08;1.77;;;20.00;51.60;;;;;;4767120;30;20231;-82
2021/11/28 10:47:08;;;;;;;5.47;1.30;;;19.90;51.40;;;;;;4766200;30;20187;-82
2021/11/28 10:49:37;;;;;;;5.38;1.42;;;19.90;51.40;;;;;;4783493;30;20164;-83
2021/11/28 10:52:10;;;;;;;4.10;1.63;;;19.90;51.70;;;;;;4776169;30;20178;-83
2021/11/28 10:54:42;;;;;;;5.43;1.83;;;20.00;52.00;;;;;;4776162;30;20171;-82
2021/11/28 10:57:15;;;;;;;3.58;1.70;;;20.00;52.20;;;;;;4779761;30;20168;-81
2021/11/28 10:59:42;;;;;;;3.92;1.50;;;20.00;52.40;;;;;;4793431;30;20159;-81
2021/11/28 11:02:32;;;;;;;4.13;1.55;;;20.00;52.50;;;;;;4763815;30;20209;-83
2021/11/28 11:04:59;;;;;;;6.38;1.38;;;20.00;52.80;;;;;;4764726;30;20563;-81
2021/11/28 11:07:25;;;;;;;8.43;1.67;;;20.00;52.60;;;;;;4793959;30;20220;-83
2021/11/28 11:09:54;;;;;;;2.38;1.48;;;19.90;51.90;;;;;;4797030;30;20176;-81
2021/11/28 11:12:35;;;;;;;3.28;1.77;;;19.90;51.80;;;;;;4763459;30;20172;-82
2021/11/28 11:15:02;;;;;;;3.88;1.50;;;19.90;52.10;;;;;;4778724;30;20175;-82
2021/11/28 11:17:31;;;;;;;3.25;1.35;;;20.00;51.90;;;;;;4763633;30;20186;-83
2021/11/28 11:19:58;;;;;;;4.43;1.50;;;20.00;51.90;;;;;;4781651;30;20183;-82
2021/11/28 11:22:26;;;;;;;3.00;1.17;;;20.00;51.90;;;;;;4784032;30;20210;-83
2021/11/28 11:25:18;;;;;;;5.20;1.60;;;19.90;51.80;;;;;;4780576;30;20651;-82
2021/11/28 11:27:45;;;;;;;4.43;1.60;;;20.00;52.00;;;;;;4781184;30;20160;-82
2021/11/28 11:30:13;;;;;;;5.80;1.77;;;19.90;52.10;;;;;;4796333;30;20629;-81
2021/11/28 11:32:43;;;;;;;5.35;1.60;;;20.00;52.10;;;;;;4761750;30;20179;-83
2021/11/28 11:35:10;;;;;;;5.72;1.45;;;20.00;52.10;;;;;;4778434;30;20222;-82
2021/11/28 11:37:37;;;;;;;4.15;1.50;;;19.90;51.90;;;;;;4766474;30;20239;-83
2021/11/28 11:40:09;;;;;;;3.67;1.55;;;20.00;52.30;;;;;;4801474;29;20180;-84
2021/11/28 11:42:35;;;;;;;2.88;1.50;;;19.90;52.00;;;;;;4760548;30;20172;-83
2021/11/28 11:45:02;;;;;;;4.75;1.52;;;19.90;52.70;;;;;;4767861;30;20203;-84
2021/11/28 11:47:28;;;;;;;3.83;1.50;;;19.90;52.80;;;;;;4780213;30;20259;-82
2021/11/28 11:49:54;;;;;;;2.92;1.20;;;19.90;52.50;;;;;;4763742;30;20176;-83
2021/11/28 11:52:20;;;;;;;7.40;1.60;;;19.90;52.70;;;;;;4779872;30;20246;-85
2021/11/28 11:54:51;;;;;;;4.30;1.60;;;19.90;52.60;;;;;;4760480;30;20254;-84
2021/11/28 11:57:27;;;;;;;5.68;1.80;;;19.80;52.00;;;;;;4775022;30;20634;-84
2021/11/28 12:00:26;;;;;;;6.05;1.52;;;19.90;52.60;;;;;;4779726;30;20177;-83
2021/11/28 12:02:53;;;;;;;4.50;1.45;;;19.90;52.50;;;;;;4781441;30;20187;-84
2021/11/28 12:05:30;;;;;;;3.78;1.40;;;19.80;52.50;;;;;;4764453;30;20203;-84
2021/11/28 12:07:57;;;;;;;6.88;1.60;;;19.90;52.30;;;;;;4783186;30;20234;-84
2021/11/28 12:10:28;;;;;;;2.42;1.17;;;19.90;52.10;;;;;;4766892;30;20175;-83
2021/11/28 12:12:55;;;;;;;3.55;1.60;;;19.80;53.00;;;;;;4782095;30;20636;-83
2021/11/28 12:15:24;;;;;;;3.55;1.45;;;19.80;53.70;;;;;;4765811;30;20199;-84
2021/11/28 12:17:52;;;;;;;3.65;1.48;;;19.80;52.60;;;;;;4767870;30;20209;-83
2021/11/28 12:20:55;;;;;;;6.47;2.10;;;19.80;52.10;;;;;;4781601;30;20210;-83
2021/11/28 12:23:48;;;;;;;3.90;1.50;;;19.80;52.70;;;;;;4780133;30;20203;-82
2021/11/28 12:26:38;;;;;;;6.82;1.60;;;19.80;52.20;;;;;;4792891;30;20220;-84
2021/11/28 12:29:22;;;;;;;3.17;1.38;;;19.80;52.30;;;;;;4776937;30;20191;-84
2021/11/28 12:31:53;;;;;;;3.63;1.85;;;19.80;52.50;;;;;;4777304;30;20160;-82
2021/11/28 12:34:22;;;;;;;6.72;1.60;;;19.80;52.60;;;;;;4778627;30;20164;-83
2021/11/28 12:36:52;;;;;;;2.17;1.40;;;19.80;52.80;;;;;;4777667;30;20239;-84
2021/11/28 12:39:37;;;;;;;1.95;1.48;;;19.80;52.60;;;;;;4777467;30;20163;-84
2021/11/28 12:42:06;;;;;;;7.60;1.80;;;19.80;52.70;;;;;;4777935;30;20202;-85
2021/11/28 12:44:37;;;;;;;4.53;1.70;;;19.80;52.50;;;;;;4778652;30;20271;-83
2021/11/28 12:47:21;;;;;;;4.55;1.75;;;19.80;52.50;;;;;;4778009;30;20163;-84
2021/11/28 12:49:52;;;;;;;3.70;1.70;;;19.80;52.80;;;;;;4762917;30;20206;-83
2021/11/28 12:52:37;;;;;;;7.22;1.48;;;19.80;52.70;;;;;;4778149;30;20155;-83
2021/11/28 12:55:12;;;;;;;6.47;1.67;;;19.80;52.40;;;;;;4776278;30;20316;-84
2021/11/28 12:57:41;;;;;;;4.95;1.60;;;19.80;52.20;;;;;;4775375;30;20224;-83
2021/11/28 13:00:31;;;;;;;4.90;1.90;;;19.80;53.00;;;;;;4777019;30;20179;-85